sensor_id;sensor_type;location;lat;lon;timestamp;P1;durP1;ratioP1;P2;durP2;ratioP2
24617;SDS011;12762;51.730;5.356;2023-05-29T00:01:04;9.23;;;2.37;;
24617;SDS011;12762;51.730;5.356;2023-05-29T00:03:33;9.33;;;2.63;;
24617;SDS011;12762;51.730;5.356;2023-05-29T00:06:02;11.40;;;2.53;;
24617;SDS011;12762;51.730;5.356;2023-05-29T00:08:30;9.70;;;3.00;;
24617;SDS011;12762;51.730;5.356;2023-05-29T00:10:58;11.57;;;2.40;;
24617;SDS011;12762;51.730;5.356;2023-05-29T00:13:28;8.47;;;2.43;;
24617;SDS011;12762;51.730;5.356;2023-05-29T00:15:55;10.27;;;2.70;;
24617;SDS011;12762;51.730;5.356;2023-05-29T00:18:27;11.77;;;2.73;;
24617;SDS011;12762;51.730;5.356;2023-05-29T00:20:58;14.83;;;3.20;;
24617;SDS011;12762;51.730;5.356;2023-05-29T00:23:25;13.23;;;2.60;;
24617;SDS011;12762;51.730;5.356;2023-05-29T00:25:52;17.17;;;3.17;;
24617;SDS011;12762;51.730;5.356;2023-05-29T00:28:19;17.47;;;3.17;;
24617;SDS011;12762;51.730;5.356;2023-05-29T00:30:47;15.97;;;3.10;;
24617;SDS011;12762;51.730;5.356;2023-05-29T00:33:14;9.13;;;2.97;;
24617;SDS011;12762;51.730;5.356;2023-05-29T00:35:41;12.17;;;2.90;;
24617;SDS011;12762;51.730;5.356;2023-05-29T00:38:12;9.50;;;2.27;;
24617;SDS011;12762;51.730;5.356;2023-05-29T00:40:41;14.20;;;2.80;;
24617;SDS011;12762;51.730;5.356;2023-05-29T00:43:08;11.50;;;2.50;;
24617;SDS011;12762;51.730;5.356;2023-05-29T00:45:35;11.93;;;2.70;;
24617;SDS011;12762;51.730;5.356;2023-05-29T00:48:05;15.37;;;3.53;;
24617;SDS011;12762;51.730;5.356;2023-05-29T00:50:34;15.07;;;3.20;;
24617;SDS011;12762;51.730;5.356;2023-05-29T00:53:01;12.40;;;2.80;;
24617;SDS011;12762;51.730;5.356;2023-05-29T00:55:29;12.73;;;2.93;;
24617;SDS011;12762;51.730;5.356;2023-05-29T00:57:56;10.90;;;2.73;;
24617;SDS011;12762;51.730;5.356;2023-05-29T01:00:23;10.83;;;2.70;;
24617;SDS011;12762;51.730;5.356;2023-05-29T01:02:53;13.47;;;2.80;;
24617;SDS011;12762;51.730;5.356;2023-05-29T01:05:22;10.17;;;2.83;;
24617;SDS011;12762;51.730;5.356;2023-05-29T01:07:49;12.63;;;2.70;;
24617;SDS011;12762;51.730;5.356;2023-05-29T01:10:16;12.67;;;2.97;;
24617;SDS011;12762;51.730;5.356;2023-05-29T01:12:51;13.93;;;3.07;;
24617;SDS011;12762;51.730;5.356;2023-05-29T01:15:49;15.47;;;2.97;;
24617;SDS011;12762;51.730;5.356;2023-05-29T01:18:24;15.80;;;2.87;;
24617;SDS011;12762;51.730;5.356;2023-05-29T01:21:00;12.53;;;2.53;;
24617;SDS011;12762;51.730;5.356;2023-05-29T01:29:04;12.00;;;3.10;;
24617;SDS011;12762;51.730;5.356;2023-05-29T01:31:34;13.50;;;2.87;;
24617;SDS011;12762;51.730;5.356;2023-05-29T01:34:02;12.73;;;2.90;;
24617;SDS011;12762;51.730;5.356;2023-05-29T01:36:31;11.97;;;2.83;;
24617;SDS011;12762;51.730;5.356;2023-05-29T01:38:59;10.10;;;2.27;;
24617;SDS011;12762;51.730;5.356;2023-05-29T01:41:26;10.97;;;2.60;;
24617;SDS011;12762;51.730;5.356;2023-05-29T01:43:55;13.67;;;3.20;;
24617;SDS011;12762;51.730;5.356;2023-05-29T01:46:24;10.90;;;2.80;;
24617;SDS011;12762;51.730;5.356;2023-05-29T01:48:54;13.50;;;2.90;;
24617;SDS011;12762;51.730;5.356;2023-05-29T01:51:23;16.27;;;2.97;;
24617;SDS011;12762;51.730;5.356;2023-05-29T01:53:50;14.27;;;2.97;;
24617;SDS011;12762;51.730;5.356;2023-05-29T01:56:17;13.67;;;2.50;;
24617;SDS011;12762;51.730;5.356;2023-05-29T01:58:45;12.87;;;2.60;;
24617;SDS011;12762;51.730;5.356;2023-05-29T02:01:13;18.33;;;3.23;;
24617;SDS011;12762;51.730;5.356;2023-05-29T02:03:40;14.80;;;2.97;;
24617;SDS011;12762;51.730;5.356;2023-05-29T02:06:09;11.43;;;2.40;;
24617;SDS011;12762;51.730;5.356;2023-05-29T02:08:37;12.83;;;2.70;;
24617;SDS011;12762;51.730;5.356;2023-05-29T02:11:04;12.57;;;2.90;;
24617;SDS011;12762;51.730;5.356;2023-05-29T02:13:31;12.60;;;2.77;;
24617;SDS011;12762;51.730;5.356;2023-05-29T02:15:58;15.83;;;3.27;;
24617;SDS011;12762;51.730;5.356;2023-05-29T02:18:25;13.93;;;2.30;;
24617;SDS011;12762;51.730;5.356;2023-05-29T02:20:51;16.20;;;2.50;;
24617;SDS011;12762;51.730;5.356;2023-05-29T02:23:19;9.70;;;2.50;;
24617;SDS011;12762;51.730;5.356;2023-05-29T02:25:55;11.43;;;2.90;;
24617;SDS011;12762;51.730;5.356;2023-05-29T02:28:22;14.57;;;2.90;;
24617;SDS011;12762;51.730;5.356;2023-05-29T02:30:50;13.90;;;2.83;;
24617;SDS011;12762;51.730;5.356;2023-05-29T02:33:17;9.13;;;2.67;;
24617;SDS011;12762;51.730;5.356;2023-05-29T02:35:44;10.53;;;2.27;;
24617;SDS011;12762;51.730;5.356;2023-05-29T02:38:11;11.17;;;3.20;;
24617;SDS011;12762;51.730;5.356;2023-05-29T02:40:37;14.60;;;2.63;;
24617;SDS011;12762;51.730;5.356;2023-05-29T02:43:05;15.20;;;3.27;;
24617;SDS011;12762;51.730;5.356;2023-05-29T02:45:32;13.50;;;3.00;;
24617;SDS011;12762;51.730;5.356;2023-05-29T02:47:59;14.37;;;2.57;;
24617;SDS011;12762;51.730;5.356;2023-05-29T02:50:26;13.47;;;2.63;;
24617;SDS011;12762;51.730;5.356;2023-05-29T02:52:54;15.40;;;3.10;;
24617;SDS011;12762;51.730;5.356;2023-05-29T02:55:21;9.40;;;2.37;;
24617;SDS011;12762;51.730;5.356;2023-05-29T02:57:48;14.03;;;2.63;;
24617;SDS011;12762;51.730;5.356;2023-05-29T03:00:19;14.47;;;3.30;;
24617;SDS011;12762;51.730;5.356;2023-05-29T03:02:49;12.33;;;2.80;;
24617;SDS011;12762;51.730;5.356;2023-05-29T03:05:17;14.00;;;2.77;;
24617;SDS011;12762;51.730;5.356;2023-05-29T03:07:44;13.50;;;2.93;;
24617;SDS011;12762;51.730;5.356;2023-05-29T03:10:11;14.30;;;2.60;;
24617;SDS011;12762;51.730;5.356;2023-05-29T03:12:38;13.03;;;3.07;;
24617;SDS011;12762;51.730;5.356;2023-05-29T03:15:05;13.13;;;2.87;;
24617;SDS011;12762;51.730;5.356;2023-05-29T03:17:34;13.03;;;3.20;;
24617;SDS011;12762;51.730;5.356;2023-05-29T03:20:03;14.97;;;3.20;;
24617;SDS011;12762;51.730;5.356;2023-05-29T03:22:32;15.10;;;3.03;;
24617;SDS011;12762;51.730;5.356;2023-05-29T03:24:59;16.33;;;3.00;;
24617;SDS011;12762;51.730;5.356;2023-05-29T03:27:26;15.50;;;2.70;;
24617;SDS011;12762;51.730;5.356;2023-05-29T03:29:57;15.73;;;2.80;;
24617;SDS011;12762;51.730;5.356;2023-05-29T03:32:25;15.87;;;3.07;;
24617;SDS011;12762;51.730;5.356;2023-05-29T03:34:51;18.27;;;2.83;;
24617;SDS011;12762;51.730;5.356;2023-05-29T03:37:18;13.80;;;2.43;;
24617;SDS011;12762;51.730;5.356;2023-05-29T03:39:45;12.03;;;2.63;;
24617;SDS011;12762;51.730;5.356;2023-05-29T03:42:13;14.63;;;2.97;;
24617;SDS011;12762;51.730;5.356;2023-05-29T03:44:40;12.13;;;2.43;;
24617;SDS011;12762;51.730;5.356;2023-05-29T03:47:07;12.93;;;2.47;;
24617;SDS011;12762;51.730;5.356;2023-05-29T03:49:35;12.50;;;2.30;;
24617;SDS011;12762;51.730;5.356;2023-05-29T03:52:02;12.73;;;2.77;;
24617;SDS011;12762;51.730;5.356;2023-05-29T03:54:29;10.00;;;2.00;;
24617;SDS011;12762;51.730;5.356;2023-05-29T03:56:56;9.97;;;2.23;;
24617;SDS011;12762;51.730;5.356;2023-05-29T03:59:23;12.33;;;2.50;;
24617;SDS011;12762;51.730;5.356;2023-05-29T04:01:50;13.33;;;2.50;;
24617;SDS011;12762;51.730;5.356;2023-05-29T04:04:17;12.90;;;2.30;;
24617;SDS011;12762;51.730;5.356;2023-05-29T04:06:44;15.10;;;2.87;;
24617;SDS011;12762;51.730;5.356;2023-05-29T04:09:11;11.33;;;2.60;;
24617;SDS011;12762;51.730;5.356;2023-05-29T04:11:37;14.13;;;2.63;;
24617;SDS011;12762;51.730;5.356;2023-05-29T04:14:08;15.47;;;2.60;;
24617;SDS011;12762;51.730;5.356;2023-05-29T04:16:35;13.13;;;3.17;;
24617;SDS011;12762;51.730;5.356;2023-05-29T04:19:02;13.43;;;2.67;;
24617;SDS011;12762;51.730;5.356;2023-05-29T04:21:30;13.77;;;2.47;;
24617;SDS011;12762;51.730;5.356;2023-05-29T04:23:59;9.50;;;2.37;;
24617;SDS011;12762;51.730;5.356;2023-05-29T04:26:26;13.47;;;2.10;;
24617;SDS011;12762;51.730;5.356;2023-05-29T04:28:53;14.50;;;2.90;;
24617;SDS011;12762;51.730;5.356;2023-05-29T04:31:24;14.23;;;2.50;;
24617;SDS011;12762;51.730;5.356;2023-05-29T04:33:52;13.77;;;2.40;;
24617;SDS011;12762;51.730;5.356;2023-05-29T04:36:23;14.57;;;2.53;;
24617;SDS011;12762;51.730;5.356;2023-05-29T04:38:54;12.20;;;2.20;;
24617;SDS011;12762;51.730;5.356;2023-05-29T04:41:21;12.57;;;3.30;;
24617;SDS011;12762;51.730;5.356;2023-05-29T04:43:50;15.23;;;2.60;;
24617;SDS011;12762;51.730;5.356;2023-05-29T04:46:30;15.87;;;2.90;;
24617;SDS011;12762;51.730;5.356;2023-05-29T04:48:57;7.10;;;2.07;;
24617;SDS011;12762;51.730;5.356;2023-05-29T04:51:27;8.70;;;2.03;;
24617;SDS011;12762;51.730;5.356;2023-05-29T04:53:54;10.30;;;2.87;;
24617;SDS011;12762;51.730;5.356;2023-05-29T04:56:22;14.37;;;2.90;;
24617;SDS011;12762;51.730;5.356;2023-05-29T04:58:49;10.23;;;2.27;;
24617;SDS011;12762;51.730;5.356;2023-05-29T05:01:15;14.67;;;2.53;;
24617;SDS011;12762;51.730;5.356;2023-05-29T05:03:43;11.00;;;2.30;;
24617;SDS011;12762;51.730;5.356;2023-05-29T05:06:11;11.20;;;2.80;;
24617;SDS011;12762;51.730;5.356;2023-05-29T05:08:39;15.03;;;2.80;;
24617;SDS011;12762;51.730;5.356;2023-05-29T05:11:06;15.10;;;2.00;;
24617;SDS011;12762;51.730;5.356;2023-05-29T05:13:33;11.87;;;2.83;;
24617;SDS011;12762;51.730;5.356;2023-05-29T05:15:59;22.40;;;2.90;;
24617;SDS011;12762;51.730;5.356;2023-05-29T05:18:27;16.13;;;2.63;;
24617;SDS011;12762;51.730;5.356;2023-05-29T05:20:57;11.80;;;2.30;;
24617;SDS011;12762;51.730;5.356;2023-05-29T05:23:24;14.47;;;2.53;;
24617;SDS011;12762;51.730;5.356;2023-05-29T05:25:51;11.67;;;2.40;;
24617;SDS011;12762;51.730;5.356;2023-05-29T05:28:18;13.57;;;2.70;;
24617;SDS011;12762;51.730;5.356;2023-05-29T05:30:45;13.23;;;2.87;;
24617;SDS011;12762;51.730;5.356;2023-05-29T05:33:13;11.97;;;2.33;;
24617;SDS011;12762;51.730;5.356;2023-05-29T05:35:43;14.60;;;2.53;;
24617;SDS011;12762;51.730;5.356;2023-05-29T05:38:10;14.57;;;2.80;;
24617;SDS011;12762;51.730;5.356;2023-05-29T05:40:36;13.13;;;2.60;;
24617;SDS011;12762;51.730;5.356;2023-05-29T05:43:03;7.90;;;2.20;;
24617;SDS011;12762;51.730;5.356;2023-05-29T05:45:30;18.37;;;2.93;;
24617;SDS011;12762;51.730;5.356;2023-05-29T05:47:57;12.80;;;2.50;;
24617;SDS011;12762;51.730;5.356;2023-05-29T05:50:24;17.40;;;2.80;;
24617;SDS011;12762;51.730;5.356;2023-05-29T05:52:51;13.23;;;2.40;;
24617;SDS011;12762;51.730;5.356;2023-05-29T05:55:18;13.60;;;2.60;;
24617;SDS011;12762;51.730;5.356;2023-05-29T05:57:45;15.60;;;2.60;;
24617;SDS011;12762;51.730;5.356;2023-05-29T06:00:12;11.17;;;3.17;;
24617;SDS011;12762;51.730;5.356;2023-05-29T06:02:39;9.87;;;2.60;;
24617;SDS011;12762;51.730;5.356;2023-05-29T06:05:11;13.40;;;2.33;;
24617;SDS011;12762;51.730;5.356;2023-05-29T06:07:38;13.23;;;2.60;;
24617;SDS011;12762;51.730;5.356;2023-05-29T06:10:05;15.70;;;2.77;;
24617;SDS011;12762;51.730;5.356;2023-05-29T06:12:33;13.20;;;2.57;;
24617;SDS011;12762;51.730;5.356;2023-05-29T06:15:00;14.53;;;2.80;;
24617;SDS011;12762;51.730;5.356;2023-05-29T06:17:27;13.83;;;2.70;;
24617;SDS011;12762;51.730;5.356;2023-05-29T06:19:55;15.63;;;2.43;;
24617;SDS011;12762;51.730;5.356;2023-05-29T06:22:21;11.57;;;2.40;;
24617;SDS011;12762;51.730;5.356;2023-05-29T06:24:48;11.53;;;2.87;;
24617;SDS011;12762;51.730;5.356;2023-05-29T06:27:15;16.53;;;2.30;;
24617;SDS011;12762;51.730;5.356;2023-05-29T06:29:42;17.80;;;2.87;;
24617;SDS011;12762;51.730;5.356;2023-05-29T06:32:09;10.97;;;2.13;;
24617;SDS011;12762;51.730;5.356;2023-05-29T06:34:35;14.77;;;2.47;;
24617;SDS011;12762;51.730;5.356;2023-05-29T06:37:05;9.00;;;2.13;;
24617;SDS011;12762;51.730;5.356;2023-05-29T06:39:32;13.70;;;2.40;;
24617;SDS011;12762;51.730;5.356;2023-05-29T06:41:59;9.17;;;1.80;;
24617;SDS011;12762;51.730;5.356;2023-05-29T06:44:28;8.63;;;1.80;;
24617;SDS011;12762;51.730;5.356;2023-05-29T06:46:55;11.10;;;1.97;;
24617;SDS011;12762;51.730;5.356;2023-05-29T06:49:22;9.73;;;1.97;;
24617;SDS011;12762;51.730;5.356;2023-05-29T06:51:48;12.20;;;1.87;;
24617;SDS011;12762;51.730;5.356;2023-05-29T06:54:17;9.40;;;2.23;;
24617;SDS011;12762;51.730;5.356;2023-05-29T06:56:46;15.50;;;2.03;;
24617;SDS011;12762;51.730;5.356;2023-05-29T06:59:31;13.40;;;1.97;;
24617;SDS011;12762;51.730;5.356;2023-05-29T07:01:58;9.37;;;1.87;;
24617;SDS011;12762;51.730;5.356;2023-05-29T07:04:25;11.80;;;1.90;;
24617;SDS011;12762;51.730;5.356;2023-05-29T07:06:52;8.27;;;1.90;;
24617;SDS011;12762;51.730;5.356;2023-05-29T07:09:19;13.07;;;2.40;;
24617;SDS011;12762;51.730;5.356;2023-05-29T07:11:46;12.63;;;2.30;;
24617;SDS011;12762;51.730;5.356;2023-05-29T07:14:12;14.33;;;2.70;;
24617;SDS011;12762;51.730;5.356;2023-05-29T07:16:40;10.10;;;1.90;;
24617;SDS011;12762;51.730;5.356;2023-05-29T07:19:07;12.73;;;2.27;;
24617;SDS011;12762;51.730;5.356;2023-05-29T07:21:46;7.77;;;1.97;;
24617;SDS011;12762;51.730;5.356;2023-05-29T07:24:14;7.20;;;1.80;;
24617;SDS011;12762;51.730;5.356;2023-05-29T07:26:41;9.87;;;1.90;;
24617;SDS011;12762;51.730;5.356;2023-05-29T07:29:08;8.77;;;2.00;;
24617;SDS011;12762;51.730;5.356;2023-05-29T07:31:38;10.33;;;1.77;;
24617;SDS011;12762;51.730;5.356;2023-05-29T07:34:08;10.53;;;2.23;;
24617;SDS011;12762;51.730;5.356;2023-05-29T07:36:35;7.80;;;1.37;;
24617;SDS011;12762;51.730;5.356;2023-05-29T07:39:06;10.70;;;2.43;;
24617;SDS011;12762;51.730;5.356;2023-05-29T07:41:33;9.37;;;1.90;;
24617;SDS011;12762;51.730;5.356;2023-05-29T07:44:00;8.57;;;1.77;;
24617;SDS011;12762;51.730;5.356;2023-05-29T07:46:27;7.13;;;1.77;;
24617;SDS011;12762;51.730;5.356;2023-05-29T07:48:59;9.53;;;1.93;;
24617;SDS011;12762;51.730;5.356;2023-05-29T07:51:26;7.37;;;1.70;;
24617;SDS011;12762;51.730;5.356;2023-05-29T07:53:53;7.77;;;1.70;;
24617;SDS011;12762;51.730;5.356;2023-05-29T07:56:20;9.37;;;2.23;;
24617;SDS011;12762;51.730;5.356;2023-05-29T07:58:49;8.50;;;1.70;;
24617;SDS011;12762;51.730;5.356;2023-05-29T08:01:18;13.23;;;2.00;;
24617;SDS011;12762;51.730;5.356;2023-05-29T08:03:45;5.83;;;1.70;;
24617;SDS011;12762;51.730;5.356;2023-05-29T08:06:12;9.87;;;2.77;;
24617;SDS011;12762;51.730;5.356;2023-05-29T08:08:40;7.87;;;1.87;;
24617;SDS011;12762;51.730;5.356;2023-05-29T08:11:07;8.80;;;2.07;;
24617;SDS011;12762;51.730;5.356;2023-05-29T08:13:34;9.77;;;2.17;;
24617;SDS011;12762;51.730;5.356;2023-05-29T08:16:01;7.67;;;1.67;;
24617;SDS011;12762;51.730;5.356;2023-05-29T08:18:29;6.97;;;2.00;;
24617;SDS011;12762;51.730;5.356;2023-05-29T08:20:57;8.77;;;1.77;;
24617;SDS011;12762;51.730;5.356;2023-05-29T08:23:25;9.53;;;2.50;;
24617;SDS011;12762;51.730;5.356;2023-05-29T08:25:52;7.80;;;1.77;;
24617;SDS011;12762;51.730;5.356;2023-05-29T08:28:21;7.33;;;1.87;;
24617;SDS011;12762;51.730;5.356;2023-05-29T08:30:48;9.33;;;1.80;;
24617;SDS011;12762;51.730;5.356;2023-05-29T08:33:14;9.77;;;1.57;;
24617;SDS011;12762;51.730;5.356;2023-05-29T08:35:41;8.57;;;1.83;;
24617;SDS011;12762;51.730;5.356;2023-05-29T08:38:08;11.87;;;2.17;;
24617;SDS011;12762;51.730;5.356;2023-05-29T08:40:36;6.87;;;1.50;;
24617;SDS011;12762;51.730;5.356;2023-05-29T08:43:14;6.40;;;2.00;;
24617;SDS011;12762;51.730;5.356;2023-05-29T08:45:47;7.33;;;1.60;;
24617;SDS011;12762;51.730;5.356;2023-05-29T08:48:19;9.43;;;1.97;;
24617;SDS011;12762;51.730;5.356;2023-05-29T08:50:53;5.53;;;1.70;;
24617;SDS011;12762;51.730;5.356;2023-05-29T08:53:27;9.83;;;1.97;;
24617;SDS011;12762;51.730;5.356;2023-05-29T08:55:54;9.43;;;1.77;;
24617;SDS011;12762;51.730;5.356;2023-05-29T08:58:22;6.33;;;1.97;;
24617;SDS011;12762;51.730;5.356;2023-05-29T09:00:50;9.00;;;2.40;;
24617;SDS011;12762;51.730;5.356;2023-05-29T09:03:17;8.97;;;1.70;;
24617;SDS011;12762;51.730;5.356;2023-05-29T09:05:46;4.80;;;1.53;;
24617;SDS011;12762;51.730;5.356;2023-05-29T09:08:17;7.03;;;2.00;;
24617;SDS011;12762;51.730;5.356;2023-05-29T09:10:44;9.00;;;1.77;;
24617;SDS011;12762;51.730;5.356;2023-05-29T09:13:20;12.57;;;2.03;;
24617;SDS011;12762;51.730;5.356;2023-05-29T09:15:47;10.27;;;1.87;;
24617;SDS011;12762;51.730;5.356;2023-05-29T09:18:16;8.03;;;1.77;;
24617;SDS011;12762;51.730;5.356;2023-05-29T09:20:49;8.87;;;2.30;;
24617;SDS011;12762;51.730;5.356;2023-05-29T09:23:16;7.83;;;2.30;;
24617;SDS011;12762;51.730;5.356;2023-05-29T09:25:44;9.47;;;2.23;;
24617;SDS011;12762;51.730;5.356;2023-05-29T09:28:18;10.97;;;2.27;;
24617;SDS011;12762;51.730;5.356;2023-05-29T09:30:47;9.20;;;1.93;;
24617;SDS011;12762;51.730;5.356;2023-05-29T09:33:14;7.63;;;1.90;;
24617;SDS011;12762;51.730;5.356;2023-05-29T09:35:43;9.50;;;1.83;;
24617;SDS011;12762;51.730;5.356;2023-05-29T09:38:15;9.83;;;1.93;;
24617;SDS011;12762;51.730;5.356;2023-05-29T09:41:08;8.70;;;2.33;;
24617;SDS011;12762;51.730;5.356;2023-05-29T09:43:36;7.07;;;1.77;;
24617;SDS011;12762;51.730;5.356;2023-05-29T09:46:05;11.57;;;1.97;;
24617;SDS011;12762;51.730;5.356;2023-05-29T09:48:35;11.00;;;2.00;;
24617;SDS011;12762;51.730;5.356;2023-05-29T09:51:02;7.80;;;1.80;;
24617;SDS011;12762;51.730;5.356;2023-05-29T09:53:30;11.20;;;2.03;;
24617;SDS011;12762;51.730;5.356;2023-05-29T09:55:56;7.87;;;2.03;;
24617;SDS011;12762;51.730;5.356;2023-05-29T09:58:27;8.97;;;2.10;;
24617;SDS011;12762;51.730;5.356;2023-05-29T10:00:56;9.17;;;2.47;;
24617;SDS011;12762;51.730;5.356;2023-05-29T10:03:24;8.97;;;1.90;;
24617;SDS011;12762;51.730;5.356;2023-05-29T10:05:52;8.73;;;2.10;;
24617;SDS011;12762;51.730;5.356;2023-05-29T10:08:23;6.73;;;1.93;;
24617;SDS011;12762;51.730;5.356;2023-05-29T10:10:58;8.83;;;1.83;;
24617;SDS011;12762;51.730;5.356;2023-05-29T10:13:38;9.03;;;1.73;;
24617;SDS011;12762;51.730;5.356;2023-05-29T10:16:12;5.27;;;1.53;;
24617;SDS011;12762;51.730;5.356;2023-05-29T10:18:42;8.40;;;1.87;;
24617;SDS011;12762;51.730;5.356;2023-05-29T10:21:15;8.30;;;1.80;;
24617;SDS011;12762;51.730;5.356;2023-05-29T10:23:46;9.33;;;2.23;;
24617;SDS011;12762;51.730;5.356;2023-05-29T10:26:18;5.10;;;1.37;;
24617;SDS011;12762;51.730;5.356;2023-05-29T10:28:50;7.83;;;1.70;;
24617;SDS011;12762;51.730;5.356;2023-05-29T10:34:41;7.40;;;1.90;;
24617;SDS011;12762;51.730;5.356;2023-05-29T10:39:37;8.47;;;2.13;;
24617;SDS011;12762;51.730;5.356;2023-05-29T10:42:08;8.37;;;2.00;;
24617;SDS011;12762;51.730;5.356;2023-05-29T10:50:37;6.97;;;1.70;;
24617;SDS011;12762;51.730;5.356;2023-05-29T10:53:08;8.23;;;1.90;;
24617;SDS011;12762;51.730;5.356;2023-05-29T10:55:43;9.00;;;2.07;;
24617;SDS011;12762;51.730;5.356;2023-05-29T10:58:21;13.00;;;2.10;;
24617;SDS011;12762;51.730;5.356;2023-05-29T11:00:52;7.57;;;2.10;;
24617;SDS011;12762;51.730;5.356;2023-05-29T11:03:25;8.23;;;1.87;;
24617;SDS011;12762;51.730;5.356;2023-05-29T11:05:56;7.27;;;2.13;;
24617;SDS011;12762;51.730;5.356;2023-05-29T11:08:34;9.23;;;2.10;;
24617;SDS011;12762;51.730;5.356;2023-05-29T11:11:07;7.80;;;1.80;;
24617;SDS011;12762;51.730;5.356;2023-05-29T11:13:42;9.97;;;2.00;;
24617;SDS011;12762;51.730;5.356;2023-05-29T11:18:52;7.27;;;2.30;;
24617;SDS011;12762;51.730;5.356;2023-05-29T11:23:59;11.07;;;2.00;;
24617;SDS011;12762;51.730;5.356;2023-05-29T11:26:33;10.07;;;2.40;;
24617;SDS011;12762;51.730;5.356;2023-05-29T11:29:03;8.77;;;1.97;;
24617;SDS011;12762;51.730;5.356;2023-05-29T11:31:32;9.53;;;2.23;;
24617;SDS011;12762;51.730;5.356;2023-05-29T11:34:03;9.27;;;1.83;;
24617;SDS011;12762;51.730;5.356;2023-05-29T11:36:32;7.80;;;2.43;;
24617;SDS011;12762;51.730;5.356;2023-05-29T11:39:00;9.40;;;2.20;;
24617;SDS011;12762;51.730;5.356;2023-05-29T11:41:30;10.23;;;2.20;;
24617;SDS011;12762;51.730;5.356;2023-05-29T11:43:58;8.67;;;1.97;;
24617;SDS011;12762;51.730;5.356;2023-05-29T11:46:27;11.85;;;2.45;;
24617;SDS011;12762;51.730;5.356;2023-05-29T11:48:59;7.27;;;1.70;;
24617;SDS011;12762;51.730;5.356;2023-05-29T11:51:26;6.63;;;1.80;;
24617;SDS011;12762;51.730;5.356;2023-05-29T11:53:56;9.50;;;2.23;;
24617;SDS011;12762;51.730;5.356;2023-05-29T11:56:27;7.90;;;2.13;;
24617;SDS011;12762;51.730;5.356;2023-05-29T11:58:55;7.47;;;2.10;;
24617;SDS011;12762;51.730;5.356;2023-05-29T12:01:26;6.47;;;1.90;;
24617;SDS011;12762;51.730;5.356;2023-05-29T12:03:54;5.57;;;1.77;;
24617;SDS011;12762;51.730;5.356;2023-05-29T12:06:30;10.77;;;2.00;;
24617;SDS011;12762;51.730;5.356;2023-05-29T12:08:58;11.00;;;2.23;;
24617;SDS011;12762;51.730;5.356;2023-05-29T12:11:30;8.87;;;1.80;;
24617;SDS011;12762;51.730;5.356;2023-05-29T12:13:57;11.00;;;1.90;;
24617;SDS011;12762;51.730;5.356;2023-05-29T12:16:28;6.80;;;1.80;;
24617;SDS011;12762;51.730;5.356;2023-05-29T12:19:00;8.83;;;2.20;;
24617;SDS011;12762;51.730;5.356;2023-05-29T12:21:27;10.77;;;2.30;;
24617;SDS011;12762;51.730;5.356;2023-05-29T12:23:54;10.20;;;2.00;;
24617;SDS011;12762;51.730;5.356;2023-05-29T12:26:38;8.23;;;2.23;;
24617;SDS011;12762;51.730;5.356;2023-05-29T12:29:05;8.37;;;2.00;;
24617;SDS011;12762;51.730;5.356;2023-05-29T12:31:33;7.60;;;1.90;;
24617;SDS011;12762;51.730;5.356;2023-05-29T12:34:01;12.20;;;2.40;;
24617;SDS011;12762;51.730;5.356;2023-05-29T12:36:39;9.03;;;2.37;;
24617;SDS011;12762;51.730;5.356;2023-05-29T12:39:06;7.83;;;1.83;;
24617;SDS011;12762;51.730;5.356;2023-05-29T12:41:37;10.30;;;2.30;;
24617;SDS011;12762;51.730;5.356;2023-05-29T12:44:06;8.07;;;2.07;;
24617;SDS011;12762;51.730;5.356;2023-05-29T12:46:37;8.47;;;2.07;;
24617;SDS011;12762;51.730;5.356;2023-05-29T12:51:42;8.20;;;2.03;;
24617;SDS011;12762;51.730;5.356;2023-05-29T12:54:10;10.37;;;2.23;;
24617;SDS011;12762;51.730;5.356;2023-05-29T12:56:38;9.97;;;1.87;;
24617;SDS011;12762;51.730;5.356;2023-05-29T12:59:08;8.73;;;2.20;;
24617;SDS011;12762;51.730;5.356;2023-05-29T13:01:36;9.03;;;2.23;;
24617;SDS011;12762;51.730;5.356;2023-05-29T13:04:07;7.10;;;1.90;;
24617;SDS011;12762;51.730;5.356;2023-05-29T13:06:34;9.68;;;1.88;;
24617;SDS011;12762;51.730;5.356;2023-05-29T13:09:04;8.43;;;2.08;;
24617;SDS011;12762;51.730;5.356;2023-05-29T13:11:32;6.15;;;1.95;;
24617;SDS011;12762;51.730;5.356;2023-05-29T13:14:02;8.33;;;1.80;;
24617;SDS011;12762;51.730;5.356;2023-05-29T13:16:32;9.10;;;2.00;;
24617;SDS011;12762;51.730;5.356;2023-05-29T13:18:59;7.70;;;2.40;;
24617;SDS011;12762;51.730;5.356;2023-05-29T13:21:26;6.72;;;2.70;;
24617;SDS011;12762;51.730;5.356;2023-05-29T13:23:53;7.70;;;1.60;;
24617;SDS011;12762;51.730;5.356;2023-05-29T13:26:20;5.68;;;1.80;;
24617;SDS011;12762;51.730;5.356;2023-05-29T13:28:48;7.03;;;2.07;;
24617;SDS011;12762;51.730;5.356;2023-05-29T13:31:15;7.55;;;1.92;;
24617;SDS011;12762;51.730;5.356;2023-05-29T13:33:44;10.35;;;2.25;;
24617;SDS011;12762;51.730;5.356;2023-05-29T13:36:12;9.63;;;2.10;;
24617;SDS011;12762;51.730;5.356;2023-05-29T13:38:38;8.80;;;2.17;;
24617;SDS011;12762;51.730;5.356;2023-05-29T13:41:05;9.27;;;2.30;;
24617;SDS011;12762;51.730;5.356;2023-05-29T13:43:35;8.80;;;1.98;;
24617;SDS011;12762;51.730;5.356;2023-05-29T13:46:10;7.57;;;1.70;;
24617;SDS011;12762;51.730;5.356;2023-05-29T13:48:37;4.50;;;1.77;;
24617;SDS011;12762;51.730;5.356;2023-05-29T13:51:04;8.50;;;2.72;;
24617;SDS011;12762;51.730;5.356;2023-05-29T13:53:32;4.93;;;1.80;;
24617;SDS011;12762;51.730;5.356;2023-05-29T13:55:59;7.25;;;2.15;;
24617;SDS011;12762;51.730;5.356;2023-05-29T13:58:25;6.95;;;1.63;;
24617;SDS011;12762;51.730;5.356;2023-05-29T14:00:52;7.40;;;1.80;;
24617;SDS011;12762;51.730;5.356;2023-05-29T14:03:19;6.40;;;2.03;;
24617;SDS011;12762;51.730;5.356;2023-05-29T14:05:48;6.20;;;1.92;;
24617;SDS011;12762;51.730;5.356;2023-05-29T14:08:15;11.00;;;2.55;;
24617;SDS011;12762;51.730;5.356;2023-05-29T14:10:42;9.75;;;2.38;;
24617;SDS011;12762;51.730;5.356;2023-05-29T14:13:10;9.27;;;2.20;;
24617;SDS011;12762;51.730;5.356;2023-05-29T14:15:37;9.70;;;2.60;;
24617;SDS011;12762;51.730;5.356;2023-05-29T14:18:06;8.48;;;2.30;;
24617;SDS011;12762;51.730;5.356;2023-05-29T14:20:34;6.57;;;1.80;;
24617;SDS011;12762;51.730;5.356;2023-05-29T14:23:02;7.72;;;1.90;;
24617;SDS011;12762;51.730;5.356;2023-05-29T14:25:29;9.13;;;1.92;;
24617;SDS011;12762;51.730;5.356;2023-05-29T14:27:58;7.85;;;2.00;;
24617;SDS011;12762;51.730;5.356;2023-05-29T14:30:24;7.93;;;2.25;;
24617;SDS011;12762;51.730;5.356;2023-05-29T14:32:51;8.60;;;1.95;;
24617;SDS011;12762;51.730;5.356;2023-05-29T14:35:18;7.57;;;2.00;;
24617;SDS011;12762;51.730;5.356;2023-05-29T14:37:45;6.63;;;2.08;;
24617;SDS011;12762;51.730;5.356;2023-05-29T14:40:12;8.63;;;2.17;;
24617;SDS011;12762;51.730;5.356;2023-05-29T14:42:42;7.35;;;2.53;;
24617;SDS011;12762;51.730;5.356;2023-05-29T14:45:08;6.95;;;1.88;;
24617;SDS011;12762;51.730;5.356;2023-05-29T14:47:36;9.82;;;2.10;;
24617;SDS011;12762;51.730;5.356;2023-05-29T14:50:03;8.60;;;2.38;;
24617;SDS011;12762;51.730;5.356;2023-05-29T14:52:38;7.82;;;2.40;;
24617;SDS011;12762;51.730;5.356;2023-05-29T14:55:05;7.95;;;2.53;;
24617;SDS011;12762;51.730;5.356;2023-05-29T14:57:32;11.30;;;2.40;;
24617;SDS011;12762;51.730;5.356;2023-05-29T15:00:01;12.77;;;2.53;;
24617;SDS011;12762;51.730;5.356;2023-05-29T15:02:28;6.77;;;2.00;;
24617;SDS011;12762;51.730;5.356;2023-05-29T15:04:55;9.32;;;2.72;;
24617;SDS011;12762;51.730;5.356;2023-05-29T15:07:22;7.37;;;2.13;;
24617;SDS011;12762;51.730;5.356;2023-05-29T15:09:49;8.73;;;2.20;;
24617;SDS011;12762;51.730;5.356;2023-05-29T15:12:16;14.27;;;2.90;;
24617;SDS011;12762;51.730;5.356;2023-05-29T15:14:42;8.68;;;3.05;;